Terminal Aerodrome Forecast
Issued by NWS

Home | Current Version | Previous Version | Text Only | Print | Product List | Glossary On
Versions: 1 2 3 4 5 6 7 8 9 10 11 12
000
FTUS46 KPDT 171100
TAFYKM
TAF
KYKM 171140Z 1712/1812 27006KT P6SM FEW130 SCT150 OVC200
     FM171800 VRB05KT P6SM BKN150 OVC200
     FM172100 16006KT P6SM SCT130 OVC180
     FM180100 VRB03KT P6SM SCT120 OVC150
     FM180500 33008KT P6SM BKN110 OVC130=

USA.gov is the U.S. government's official web portal to all federal, state and local government web resources and services.